createdAt,value
2017-04-29T00:00:15.473Z,1010.23
2017-04-29T00:00:56.095Z,1010.24
2017-04-29T00:01:36.779Z,1010.25
2017-04-29T00:02:17.389Z,1010.22
2017-04-29T00:02:58.065Z,1010.2
2017-04-29T00:03:38.701Z,1010.21
2017-04-29T00:04:19.357Z,1010.23
2017-04-29T00:05:01.027Z,1010.22
2017-04-29T00:05:41.705Z,1010.2
2017-04-29T00:06:22.327Z,1010.21
2017-04-29T00:07:02.990Z,1010.22
2017-04-29T00:07:43.544Z,1010.24
2017-04-29T00:08:24.137Z,1010.24
2017-04-29T00:09:04.746Z,1010.27
2017-04-29T00:09:45.399Z,1010.25
2017-04-29T00:10:25.952Z,1010.29
2017-04-29T00:11:06.531Z,1010.28
2017-04-29T00:11:47.138Z,1010.26
2017-04-29T00:12:27.798Z,1010.28
2017-04-29T00:13:08.376Z,1010.26
2017-04-29T00:13:49.005Z,1010.29
2017-04-29T00:14:29.652Z,1010.29
2017-04-29T00:15:10.237Z,1010.3
2017-04-29T00:15:51.885Z,1010.29
2017-04-29T00:16:32.537Z,1010.3
2017-04-29T00:17:13.194Z,1010.31
2017-04-29T00:17:53.838Z,1010.3
2017-04-29T00:18:34.502Z,1010.32
2017-04-29T00:19:15.164Z,1010.34
2017-04-29T00:19:55.805Z,1010.3
2017-04-29T00:20:36.457Z,1010.31
2017-04-29T00:21:17.111Z,1010.31
2017-04-29T00:21:57.794Z,1010.3
2017-04-29T00:22:38.418Z,1010.29
2017-04-29T00:23:19.068Z,1010.32
2017-04-29T00:23:59.718Z,1010.3
2017-04-29T00:24:40.378Z,1010.3
2017-04-29T00:25:21.045Z,1010.31
2017-04-29T00:26:01.681Z,1010.27
2017-04-29T00:26:42.241Z,1010.31
2017-04-29T00:27:22.829Z,1010.31
2017-04-29T00:28:03.433Z,1010.29
2017-04-29T00:28:44.096Z,1010.28
2017-04-29T00:29:24.647Z,1010.27
2017-04-29T00:30:06.273Z,1010.29
2017-04-29T00:30:46.864Z,1010.27
2017-04-29T00:31:27.516Z,1010.29
2017-04-29T00:32:08.168Z,1010.25
2017-04-29T00:32:49.846Z,1010.28
2017-04-29T00:33:30.550Z,1010.3
2017-04-29T00:34:12.176Z,1010.27
2017-04-29T00:34:52.830Z,1010.26
2017-04-29T00:35:33.630Z,1010.23
2017-04-29T00:36:14.965Z,1010.25
2017-04-29T00:36:55.543Z,1010.3
2017-04-29T00:37:36.226Z,1010.28
2017-04-29T00:38:16.908Z,1010.25
2017-04-29T00:38:57.561Z,1010.29
2017-04-29T00:39:38.162Z,1010.27
2017-04-29T00:40:18.813Z,1010.28
2017-04-29T00:40:59.441Z,1010.25
2017-04-29T00:41:41.098Z,1010.31
2017-04-29T00:42:21.753Z,1010.3
2017-04-29T00:43:02.404Z,1010.3
2017-04-29T00:43:43.052Z,1010.29
2017-04-29T00:44:23.710Z,1010.3
2017-04-29T00:45:04.364Z,1010.32
2017-04-29T00:45:45.016Z,1010.34
2017-04-29T00:46:25.670Z,1010.33
2017-04-29T00:47:06.322Z,1010.35
2017-04-29T00:47:47.995Z,1010.33
2017-04-29T00:48:28.652Z,1010.34
2017-04-29T00:49:09.302Z,1010.3
2017-04-29T00:49:49.956Z,1010.31
2017-04-29T00:50:30.607Z,1010.29
2017-04-29T00:51:11.276Z,1010.31
2017-04-29T00:51:51.840Z,1010.29
2017-04-29T00:52:32.524Z,1010.31
2017-04-29T00:53:13.115Z,1010.31
2017-04-29T00:53:53.769Z,1010.32
2017-04-29T00:54:34.369Z,1010.35
2017-04-29T00:55:15.105Z,1010.33
2017-04-29T00:55:55.729Z,1010.38
2017-04-29T00:56:36.391Z,1010.41
2017-04-29T00:57:16.968Z,1010.4
2017-04-29T00:57:57.651Z,1010.37
2017-04-29T00:58:38.340Z,1010.39
2017-04-29T00:59:18.991Z,1010.41
2017-04-29T00:59:59.578Z,1010.39
2017-04-29T01:00:40.186Z,1010.45
2017-04-29T01:01:20.846Z,1010.43
2017-04-29T01:02:01.504Z,1010.47
2017-04-29T01:02:42.063Z,1010.47
2017-04-29T01:03:22.755Z,1010.46
2017-04-29T01:04:04.366Z,1010.52
2017-04-29T01:04:45.019Z,1010.44
2017-04-29T01:05:25.619Z,1010.5
2017-04-29T01:06:06.285Z,1010.48
2017-04-29T01:06:46.976Z,1010.49
2017-04-29T01:07:27.627Z,1010.52
2017-04-29T01:08:08.280Z,1010.54
2017-04-29T01:08:49.962Z,1010.48
2017-04-29T01:09:31.633Z,1010.52
2017-04-29T01:10:12.285Z,1010.5
2017-04-29T01:10:52.941Z,1010.55
2017-04-29T01:11:33.703Z,1010.54
2017-04-29T01:12:14.262Z,1010.53
2017-04-29T01:12:55.008Z,1010.52
2017-04-29T01:13:36.689Z,1010.57
2017-04-29T01:14:17.335Z,1010.5
2017-04-29T01:14:57.899Z,1010.53
2017-04-29T01:15:38.588Z,1010.57
2017-04-29T01:16:19.164Z,1010.58
2017-04-29T01:17:00.862Z,1010.55
2017-04-29T01:17:41.444Z,1010.62
2017-04-29T01:18:22.073Z,1010.58
2017-04-29T01:19:03.744Z,1010.62
2017-04-29T01:19:44.310Z,1010.57
2017-04-29T01:20:25.989Z,1010.61
2017-04-29T01:21:07.651Z,1010.56
2017-04-29T01:21:48.217Z,1010.61
2017-04-29T01:22:29.879Z,1010.63
2017-04-29T01:23:10.532Z,1010.57
2017-04-29T01:23:51.181Z,1010.52
2017-04-29T01:24:31.840Z,1010.61
2017-04-29T01:25:12.492Z,1010.58
2017-04-29T01:25:53.145Z,1010.55
2017-04-29T01:26:33.791Z,1010.62
2017-04-29T01:27:14.450Z,1010.64
2017-04-29T01:27:55.099Z,1010.66
2017-04-29T01:28:36.784Z,1010.67
2017-04-29T01:29:18.456Z,1010.7
2017-04-29T01:29:59.110Z,1010.71
2017-04-29T01:30:39.751Z,1010.67
2017-04-29T01:31:20.411Z,1010.65
2017-04-29T01:32:01.064Z,1010.74
2017-04-29T01:32:42.749Z,1010.68
2017-04-29T01:33:23.311Z,1010.7
2017-04-29T01:34:03.955Z,1010.7
2017-04-29T01:34:44.599Z,1010.72
2017-04-29T01:35:25.167Z,1010.73
2017-04-29T01:36:05.800Z,1010.74
2017-04-29T01:36:46.455Z,1010.74
2017-04-29T01:37:27.034Z,1010.74
2017-04-29T01:38:07.657Z,1010.7
2017-04-29T01:38:49.349Z,1010.73
2017-04-29T01:39:29.900Z,1010.74
2017-04-29T01:40:10.538Z,1010.74
2017-04-29T01:40:51.197Z,1010.7
2017-04-29T01:41:31.758Z,1010.72
2017-04-29T01:42:12.393Z,1010.72
2017-04-29T01:42:53.047Z,1010.7
2017-04-29T01:43:33.601Z,1010.73
2017-04-29T01:44:14.353Z,1010.72
2017-04-29T01:44:55.009Z,1010.73
2017-04-29T01:45:35.658Z,1010.74
2017-04-29T01:46:16.236Z,1010.72
2017-04-29T01:46:56.922Z,1010.77
2017-04-29T01:47:37.757Z,1010.78
2017-04-29T01:48:18.651Z,1010.76
2017-04-29T01:49:00.361Z,1010.78
2017-04-29T01:49:41.045Z,1010.79
2017-04-29T01:50:21.766Z,1010.8
2017-04-29T01:51:02.430Z,1010.81
2017-04-29T01:51:43.788Z,1010.78
2017-04-29T01:52:24.453Z,1010.81
2017-04-29T01:53:05.107Z,1010.78
2017-04-29T01:53:45.754Z,1010.83
2017-04-29T01:54:26.410Z,1010.83
2017-04-29T01:55:07.065Z,1010.82
2017-04-29T01:55:47.716Z,1010.86
2017-04-29T01:56:29.368Z,1010.86
2017-04-29T01:57:10.037Z,1010.86
2017-04-29T01:57:52.747Z,1010.85
2017-04-29T01:58:34.422Z,1010.83
2017-04-29T01:59:15.077Z,1010.84
2017-04-29T01:59:55.714Z,1010.83
2017-04-29T02:00:36.383Z,1010.81
2017-04-29T02:01:17.033Z,1010.82
2017-04-29T02:01:57.689Z,1010.87
2017-04-29T02:02:38.387Z,1010.83
2017-04-29T02:03:18.966Z,1010.84
2017-04-29T02:03:59.633Z,1010.83
2017-04-29T02:04:40.348Z,1010.81
2017-04-29T02:05:21.005Z,1010.78
2017-04-29T02:06:01.578Z,1010.8
2017-04-29T02:06:42.257Z,1010.77
2017-04-29T02:07:22.960Z,1010.78
2017-04-29T02:08:03.563Z,1010.77
2017-04-29T02:08:44.271Z,1010.74
2017-04-29T02:09:25.010Z,1010.75
2017-04-29T02:10:05.626Z,1010.75
2017-04-29T02:10:46.328Z,1010.75
2017-04-29T02:11:27.079Z,1010.77
2017-04-29T02:12:07.657Z,1010.79
2017-04-29T02:12:48.395Z,1010.82
2017-04-29T02:13:29.137Z,1010.82
2017-04-29T02:14:09.690Z,1010.78
2017-04-29T02:14:50.440Z,1010.8
2017-04-29T02:15:31.202Z,1010.81
2017-04-29T02:16:11.803Z,1010.81
2017-04-29T02:16:52.517Z,1010.84
2017-04-29T02:17:33.262Z,1010.84
2017-04-29T02:18:14.016Z,1010.85
2017-04-29T02:18:54.772Z,1010.84
2017-04-29T02:19:35.525Z,1010.87
2017-04-29T02:20:16.282Z,1010.89
2017-04-29T02:20:56.949Z,1010.87
2017-04-29T02:21:37.691Z,1010.89
2017-04-29T02:22:18.278Z,1010.94
2017-04-29T02:22:58.952Z,1010.91
2017-04-29T02:23:39.647Z,1010.91
2017-04-29T02:24:20.199Z,1010.93
2017-04-29T02:25:00.864Z,1010.94
2017-04-29T02:25:41.607Z,1010.98
2017-04-29T02:26:22.188Z,1011
2017-04-29T02:27:02.863Z,1010.96
2017-04-29T02:27:43.564Z,1010.93
2017-04-29T02:28:24.148Z,1010.93
2017-04-29T02:29:04.889Z,1010.94
2017-04-29T02:29:45.632Z,1010.89
2017-04-29T02:30:26.213Z,1010.95
2017-04-29T02:31:06.999Z,1010.97
2017-04-29T02:31:47.581Z,1010.97
2017-04-29T02:32:28.162Z,1010.97
2017-04-29T02:33:08.819Z,1010.99
2017-04-29T02:33:49.518Z,1010.97
2017-04-29T02:34:30.253Z,1010.93
2017-04-29T02:35:10.831Z,1010.94
2017-04-29T02:35:51.512Z,1010.98
2017-04-29T02:36:32.213Z,1010.99
2017-04-29T02:37:12.860Z,1011.01
2017-04-29T02:37:53.433Z,1011.03
2017-04-29T02:38:48.809Z,1011
2017-04-29T02:39:29.555Z,1011.01
2017-04-29T02:40:10.222Z,1010.99
2017-04-29T02:40:50.873Z,1010.96
2017-04-29T02:41:31.445Z,1010.99
2017-04-29T02:42:12.335Z,1010.98
2017-04-29T02:42:53.035Z,1010.95
2017-04-29T02:43:33.714Z,1010.94
2017-04-29T02:44:14.457Z,1010.99
2017-04-29T02:44:55.114Z,1010.97
2017-04-29T02:45:35.793Z,1010.96
2017-04-29T02:46:16.398Z,1010.92
2017-04-29T02:46:57.057Z,1010.94
2017-04-29T02:47:38.746Z,1010.92
2017-04-29T02:48:19.325Z,1010.92
2017-04-29T02:49:00.002Z,1010.91
2017-04-29T02:49:41.712Z,1010.91
2017-04-29T02:50:22.332Z,1010.97
2017-04-29T02:51:02.897Z,1010.94
2017-04-29T02:51:43.551Z,1010.93
2017-04-29T02:52:24.244Z,1010.92
2017-04-29T02:53:04.882Z,1010.94
2017-04-29T02:53:45.470Z,1010.95
2017-04-29T02:54:26.135Z,1011
2017-04-29T02:55:06.850Z,1011
2017-04-29T02:55:47.550Z,1011
2017-04-29T02:56:28.110Z,1011.03
2017-04-29T02:57:08.728Z,1010.96
2017-04-29T02:57:49.412Z,1010.95
2017-04-29T02:58:30.069Z,1010.98
2017-04-29T02:59:10.648Z,1010.92
2017-04-29T02:59:51.325Z,1010.99
2017-04-29T03:00:32.948Z,1010.99
2017-04-29T03:01:13.592Z,1010.96
2017-04-29T03:01:54.164Z,1010.95
2017-04-29T03:02:34.747Z,1011.02
2017-04-29T03:03:15.410Z,1010.99
2017-04-29T03:03:56.047Z,1011
2017-04-29T03:04:36.706Z,1010.98
2017-04-29T03:05:17.353Z,1011
2017-04-29T03:05:58.005Z,1010.98
2017-04-29T03:06:38.656Z,1010.95
2017-04-29T03:07:19.317Z,1010.98
2017-04-29T03:07:59.970Z,1011.02
2017-04-29T03:08:40.615Z,1011.07
2017-04-29T03:09:21.172Z,1011
2017-04-29T03:10:01.816Z,1011
2017-04-29T03:10:42.470Z,1010.99
2017-04-29T03:11:23.126Z,1010.99
2017-04-29T03:12:03.766Z,1010.99
2017-04-29T03:12:44.430Z,1011.01
2017-04-29T03:13:25.088Z,1011
2017-04-29T03:14:05.876Z,1011.05
2017-04-29T03:14:46.496Z,1011.07
2017-04-29T03:15:27.152Z,1011.01
2017-04-29T03:16:07.804Z,1011.04
2017-04-29T03:16:48.451Z,1011.01
2017-04-29T03:17:29.136Z,1011.01
2017-04-29T03:18:09.704Z,1011.04
2017-04-29T03:18:50.363Z,1011.05
2017-04-29T03:19:30.914Z,1011.09
2017-04-29T03:20:11.516Z,1011.09
2017-04-29T03:20:52.118Z,1011.08
2017-04-29T03:21:32.766Z,1011.09
2017-04-29T03:22:13.327Z,1011.09
2017-04-29T03:22:53.914Z,1011.09
2017-04-29T03:23:34.515Z,1011.08
2017-04-29T03:24:15.177Z,1011.09
2017-04-29T03:24:55.741Z,1011.08
2017-04-29T03:25:36.383Z,1011.08
2017-04-29T03:26:17.029Z,1011.08
2017-04-29T03:26:57.611Z,1011.11
2017-04-29T03:27:38.193Z,1011.06
2017-04-29T03:28:18.836Z,1011.11
2017-04-29T03:28:59.486Z,1011.12
2017-04-29T03:29:40.143Z,1011.11
2017-04-29T03:30:20.785Z,1011.15
2017-04-29T03:31:01.477Z,1011.13
2017-04-29T03:31:42.129Z,1011.1
2017-04-29T03:32:22.750Z,1011.07
2017-04-29T03:33:03.366Z,1011.09
2017-04-29T03:33:44.010Z,1011.11
2017-04-29T03:34:24.576Z,1011.08
2017-04-29T03:35:05.149Z,1011.12
2017-04-29T03:35:45.771Z,1011.09
2017-04-29T03:36:26.418Z,1011.1
2017-04-29T03:37:06.981Z,1011.1
2017-04-29T03:37:47.559Z,1011.11
2017-04-29T03:38:28.218Z,1011.14
2017-04-29T03:39:08.885Z,1011.13
2017-04-29T03:39:49.521Z,1011.15
2017-04-29T03:40:30.174Z,1011.11
2017-04-29T03:41:10.829Z,1011.08
2017-04-29T03:41:51.493Z,1011.12
2017-04-29T03:42:32.131Z,1011.13
2017-04-29T03:43:12.745Z,1011.14
2017-04-29T03:43:53.397Z,1011.14
2017-04-29T03:44:33.970Z,1011.18
2017-04-29T03:45:14.648Z,1011.17
2017-04-29T03:45:55.251Z,1011.15
2017-04-29T03:46:35.905Z,1011.15
2017-04-29T03:47:16.478Z,1011.19
2017-04-29T03:47:57.052Z,1011.22
2017-04-29T03:48:37.653Z,1011.18
2017-04-29T03:49:18.307Z,1011.13
2017-04-29T03:49:58.887Z,1011.16
2017-04-29T03:50:39.510Z,1011.17
2017-04-29T03:51:20.170Z,1011.19
2017-04-29T03:52:00.817Z,1011.21
2017-04-29T03:52:41.394Z,1011.17
2017-04-29T03:53:22.073Z,1011.21
2017-04-29T03:54:02.683Z,1011.21
2017-04-29T03:54:44.354Z,1011.19
2017-04-29T03:55:24.914Z,1011.2
2017-04-29T03:56:05.515Z,1011.22
2017-04-29T03:56:46.823Z,1011.21
2017-04-29T03:57:27.475Z,1011.24
2017-04-29T03:58:08.131Z,1011.22
2017-04-29T03:58:48.782Z,1011.21
2017-04-29T03:59:29.436Z,1011.22
2017-04-29T04:00:10.087Z,1011.22
2017-04-29T04:00:50.737Z,1011.26
2017-04-29T04:01:31.397Z,1011.2
2017-04-29T04:02:12.045Z,1011.2
2017-04-29T04:02:53.622Z,1011.25
2017-04-29T04:03:34.277Z,1011.3
2017-04-29T04:04:14.930Z,1011.26
2017-04-29T04:04:55.585Z,1011.26
2017-04-29T04:05:36.236Z,1011.28
2017-04-29T04:06:16.883Z,1011.29
2017-04-29T04:06:57.546Z,1011.27
2017-04-29T04:07:38.190Z,1011.31
2017-04-29T04:08:18.842Z,1011.32
2017-04-29T04:09:00.525Z,1011.31
2017-04-29T04:09:41.170Z,1011.26
2017-04-29T04:10:21.833Z,1011.29
2017-04-29T04:11:02.480Z,1011.25
2017-04-29T04:11:43.137Z,1011.26
2017-04-29T04:12:23.690Z,1011.22
2017-04-29T04:13:04.342Z,1011.2
2017-04-29T04:13:44.991Z,1011.16
2017-04-29T04:14:25.551Z,1011.21
2017-04-29T04:15:06.184Z,1011.23
2017-04-29T04:15:46.837Z,1011.21
2017-04-29T04:16:27.400Z,1011.19
2017-04-29T04:17:08.035Z,1011.18
2017-04-29T04:17:48.697Z,1011.2
2017-04-29T04:18:29.257Z,1011.2
2017-04-29T04:19:09.891Z,1011.21
2017-04-29T04:19:50.556Z,1011.23
2017-04-29T04:20:31.119Z,1011.25
2017-04-29T04:21:11.768Z,1011.22
2017-04-29T04:21:52.411Z,1011.2
2017-04-29T04:22:32.969Z,1011.22
2017-04-29T04:23:13.610Z,1011.18
2017-04-29T04:23:54.260Z,1011.19
2017-04-29T04:24:34.835Z,1011.2
2017-04-29T04:25:15.435Z,1011.2
2017-04-29T04:25:56.114Z,1011.24
2017-04-29T04:26:36.773Z,1011.25
2017-04-29T04:27:17.341Z,1011.24
2017-04-29T04:27:57.949Z,1011.23
2017-04-29T04:28:38.630Z,1011.24
2017-04-29T04:29:19.287Z,1011.26
2017-04-29T04:29:59.854Z,1011.26
2017-04-29T04:30:41.456Z,1011.28
2017-04-29T04:31:22.045Z,1011.3
2017-04-29T04:32:02.711Z,1011.29
2017-04-29T04:32:43.273Z,1011.32
2017-04-29T04:33:23.864Z,1011.32
2017-04-29T04:34:04.473Z,1011.28
2017-04-29T04:34:45.115Z,1011.28
2017-04-29T04:35:25.689Z,1011.31
2017-04-29T04:36:06.271Z,1011.32
2017-04-29T04:36:46.878Z,1011.24
2017-04-29T04:37:27.536Z,1011.27
2017-04-29T04:38:08.108Z,1011.3
2017-04-29T04:38:48.675Z,1011.3
2017-04-29T04:39:29.384Z,1011.28
2017-04-29T04:40:10.042Z,1011.29
2017-04-29T04:40:50.607Z,1011.3
2017-04-29T04:41:31.191Z,1011.29
2017-04-29T04:42:11.763Z,1011.28
2017-04-29T04:42:52.338Z,1011.28
2017-04-29T04:43:32.902Z,1011.28
2017-04-29T04:44:13.518Z,1011.28
2017-04-29T04:44:54.200Z,1011.3
2017-04-29T04:45:34.851Z,1011.31
2017-04-29T04:46:15.410Z,1011.28
2017-04-29T04:46:55.989Z,1011.31
2017-04-29T04:47:36.603Z,1011.33
2017-04-29T04:48:17.257Z,1011.35
2017-04-29T04:48:57.816Z,1011.34
2017-04-29T04:49:38.408Z,1011.33
2017-04-29T04:50:19.037Z,1011.38
2017-04-29T04:50:59.662Z,1011.36
2017-04-29T04:51:40.219Z,1011.37
2017-04-29T04:52:20.821Z,1011.3
2017-04-29T04:53:01.417Z,1011.33
2017-04-29T04:53:42.069Z,1011.37
2017-04-29T04:54:22.723Z,1011.35
2017-04-29T04:55:03.374Z,1011.38
2017-04-29T04:55:44.029Z,1011.35
2017-04-29T04:56:24.693Z,1011.35
2017-04-29T04:57:05.334Z,1011.34
2017-04-29T04:57:45.915Z,1011.39
2017-04-29T04:58:26.631Z,1011.39
2017-04-29T04:59:07.190Z,1011.4
2017-04-29T04:59:47.839Z,1011.45
2017-04-29T05:00:28.399Z,1011.43
2017-04-29T05:01:08.994Z,1011.48
2017-04-29T05:01:49.650Z,1011.53
2017-04-29T05:02:31.273Z,1011.5
2017-04-29T05:03:11.926Z,1011.52
2017-04-29T05:03:52.573Z,1011.55
2017-04-29T05:04:33.233Z,1011.53
2017-04-29T05:05:13.900Z,1011.5
2017-04-29T05:05:55.563Z,1011.52
2017-04-29T05:06:36.212Z,1011.51
2017-04-29T05:07:16.882Z,1011.52
2017-04-29T05:07:57.519Z,1011.51
2017-04-29T05:08:38.170Z,1011.58
2017-04-29T05:09:18.824Z,1011.57
2017-04-29T05:09:59.478Z,1011.56
2017-04-29T05:10:40.130Z,1011.56
2017-04-29T05:11:20.782Z,1011.6
2017-04-29T05:12:01.436Z,1011.59
2017-04-29T05:12:42.003Z,1011.59
2017-04-29T05:13:22.598Z,1011.64
2017-04-29T05:14:03.183Z,1011.61
2017-04-29T05:14:44.760Z,1011.61
2017-04-29T05:15:25.334Z,1011.61
2017-04-29T05:16:06.020Z,1011.6
2017-04-29T05:16:46.643Z,1011.61
2017-04-29T05:17:27.273Z,1011.6
2017-04-29T05:18:07.927Z,1011.59
2017-04-29T05:18:48.579Z,1011.57
2017-04-29T05:19:29.227Z,1011.57
2017-04-29T05:20:09.880Z,1011.56
2017-04-29T05:20:50.539Z,1011.56
2017-04-29T05:21:31.189Z,1011.56
2017-04-29T05:22:11.838Z,1011.57
2017-04-29T05:22:52.493Z,1011.57
2017-04-29T05:23:33.145Z,1011.61
2017-04-29T05:24:13.798Z,1011.59
2017-04-29T05:24:54.451Z,1011.61
2017-04-29T05:25:35.002Z,1011.62
2017-04-29T05:26:15.632Z,1011.62
2017-04-29T05:26:56.403Z,1011.64
2017-04-29T05:27:37.054Z,1011.65
2017-04-29T05:28:17.802Z,1011.65
2017-04-29T05:28:58.388Z,1011.61
2017-04-29T05:29:39.073Z,1011.65
2017-04-29T05:30:19.765Z,1011.66
2017-04-29T05:31:00.522Z,1011.62
2017-04-29T05:31:41.084Z,1011.63
2017-04-29T05:32:21.783Z,1011.6
2017-04-29T05:33:02.476Z,1011.64
2017-04-29T05:33:43.239Z,1011.58
2017-04-29T05:34:23.983Z,1011.61
2017-04-29T05:35:04.740Z,1011.63
2017-04-29T05:35:45.492Z,1011.62
2017-04-29T05:36:26.252Z,1011.64
2017-04-29T05:37:07.020Z,1011.64
2017-04-29T05:37:47.728Z,1011.66
2017-04-29T05:38:28.376Z,1011.7
2017-04-29T05:39:09.089Z,1011.7
2017-04-29T05:39:49.846Z,1011.67
2017-04-29T05:40:30.590Z,1011.64
2017-04-29T05:41:11.351Z,1011.67
2017-04-29T05:41:52.112Z,1011.7
2017-04-29T05:42:32.856Z,1011.7
2017-04-29T05:43:13.614Z,1011.69
2017-04-29T05:43:54.368Z,1011.69
2017-04-29T05:44:35.123Z,1011.71
2017-04-29T05:45:15.882Z,1011.7
2017-04-29T05:45:56.747Z,1011.71
2017-04-29T05:46:37.496Z,1011.73
2017-04-29T05:47:18.253Z,1011.69
2017-04-29T05:47:58.838Z,1011.7
2017-04-29T05:48:39.609Z,1011.68
2017-04-29T05:49:20.311Z,1011.69
2017-04-29T05:50:01.062Z,1011.7
2017-04-29T05:50:41.623Z,1011.71
2017-04-29T05:51:22.361Z,1011.75
2017-04-29T05:52:03.139Z,1011.7
2017-04-29T05:52:43.906Z,1011.71
2017-04-29T05:53:24.484Z,1011.72
2017-04-29T05:54:05.241Z,1011.72
2017-04-29T05:54:45.974Z,1011.72
2017-04-29T05:55:26.697Z,1011.74
2017-04-29T05:56:07.264Z,1011.77
2017-04-29T05:56:47.976Z,1011.74
2017-04-29T05:57:28.674Z,1011.75
2017-04-29T05:58:09.419Z,1011.77
2017-04-29T05:58:50.167Z,1011.77
2017-04-29T05:59:30.929Z,1011.74
2017-04-29T06:00:11.680Z,1011.78
2017-04-29T06:00:52.438Z,1011.75
2017-04-29T06:01:33.211Z,1011.73
2017-04-29T06:02:13.947Z,1011.72
2017-04-29T06:02:54.508Z,1011.74
2017-04-29T06:03:35.255Z,1011.79
2017-04-29T06:04:16.012Z,1011.77
2017-04-29T06:04:56.586Z,1011.8
2017-04-29T06:05:37.314Z,1011.8
2017-04-29T06:06:18.071Z,1011.82
2017-04-29T06:06:58.637Z,1011.83
2017-04-29T06:07:39.371Z,1011.86
2017-04-29T06:08:20.134Z,1011.82
2017-04-29T06:09:00.699Z,1011.81
2017-04-29T06:09:41.402Z,1011.81
2017-04-29T06:10:22.192Z,1011.84
2017-04-29T06:11:02.949Z,1011.83
2017-04-29T06:11:43.510Z,1011.85
2017-04-29T06:12:24.205Z,1011.85
2017-04-29T06:13:04.903Z,1011.89
2017-04-29T06:13:45.659Z,1011.87
2017-04-29T06:14:26.249Z,1011.86
2017-04-29T06:15:07.028Z,1011.85
2017-04-29T06:15:47.830Z,1011.83
2017-04-29T06:16:28.395Z,1011.86
2017-04-29T06:17:09.029Z,1011.88
2017-04-29T06:17:49.788Z,1011.85
2017-04-29T06:18:30.378Z,1011.9
2017-04-29T06:19:11.147Z,1011.8
2017-04-29T06:19:51.742Z,1011.79
2017-04-29T06:20:32.394Z,1011.85
2017-04-29T06:21:12.968Z,1011.85
2017-04-29T06:21:54.677Z,1011.84
2017-04-29T06:22:36.306Z,1011.86
2017-04-29T06:23:16.953Z,1011.84
2017-04-29T06:23:57.526Z,1011.84
2017-04-29T06:24:38.143Z,1011.87
2017-04-29T06:25:18.860Z,1011.85
2017-04-29T06:25:59.418Z,1011.87
2017-04-29T06:26:40.069Z,1011.9
2017-04-29T06:27:20.722Z,1011.9
2017-04-29T06:28:01.306Z,1011.91
2017-04-29T06:28:41.990Z,1011.94
2017-04-29T06:29:22.672Z,1011.95
2017-04-29T06:30:03.847Z,1011.94
2017-04-29T06:30:44.464Z,1011.99
2017-04-29T06:31:25.123Z,1011.99
2017-04-29T06:32:05.672Z,1011.93
2017-04-29T06:32:46.343Z,1011.98
2017-04-29T06:33:27.009Z,1011.97
2017-04-29T06:34:07.657Z,1011.96
2017-04-29T06:34:48.304Z,1011.99
2017-04-29T06:35:28.955Z,1011.98
2017-04-29T06:36:09.619Z,1012
2017-04-29T06:36:50.268Z,1011.97
2017-04-29T06:37:30.928Z,1011.99
2017-04-29T06:38:12.081Z,1012.04
2017-04-29T06:38:52.743Z,1012.03
2017-04-29T06:39:33.388Z,1012.04
2017-04-29T06:40:14.050Z,1012.03
2017-04-29T06:40:54.696Z,1012.09
2017-04-29T06:41:35.356Z,1012.09
2017-04-29T06:42:16.002Z,1012.11
2017-04-29T06:42:56.607Z,1012.1
2017-04-29T06:43:37.261Z,1012.09
2017-04-29T06:44:17.960Z,1012.13
2017-04-29T06:44:58.722Z,1012.16
2017-04-29T06:45:39.283Z,1012.15
2017-04-29T06:46:19.991Z,1012.17
2017-04-29T06:47:00.681Z,1012.14
2017-04-29T06:47:41.335Z,1012.16
2017-04-29T06:48:21.980Z,1012.17
2017-04-29T06:49:02.735Z,1012.16
2017-04-29T06:49:43.499Z,1012.17
2017-04-29T06:50:24.146Z,1012.21
2017-04-29T06:51:04.802Z,1012.17
2017-04-29T06:51:45.557Z,1012.16
2017-04-29T06:52:26.204Z,1012.24
2017-04-29T06:53:06.772Z,1012.22
2017-04-29T06:53:47.485Z,1012.2
2017-04-29T06:54:28.158Z,1012.17
2017-04-29T06:55:08.919Z,1012.16
2017-04-29T06:55:49.486Z,1012.19
2017-04-29T06:56:30.200Z,1012.21
2017-04-29T06:57:10.882Z,1012.25
2017-04-29T06:57:51.639Z,1012.25
2017-04-29T06:58:32.199Z,1012.26
2017-04-29T06:59:12.890Z,1012.2
2017-04-29T06:59:53.589Z,1012.21
2017-04-29T07:00:34.247Z,1012.24
2017-04-29T07:01:16.695Z,1012.25
2017-04-29T07:01:57.330Z,1012.21
2017-04-29T07:02:38.097Z,1012.22
2017-04-29T07:03:18.847Z,1012.24
2017-04-29T07:03:59.607Z,1012.26
2017-04-29T07:04:40.363Z,1012.23
2017-04-29T07:05:21.013Z,1012.19
2017-04-29T07:06:01.973Z,1012.24
2017-04-29T07:06:42.627Z,1012.18
2017-04-29T07:07:23.197Z,1012.21
2017-04-29T07:08:03.832Z,1012.21
2017-04-29T07:08:44.686Z,1012.17
2017-04-29T07:09:25.442Z,1012.2
2017-04-29T07:10:06.123Z,1012.19
2017-04-29T07:10:46.747Z,1012.2
2017-04-29T07:11:27.403Z,1012.12
2017-04-29T07:12:08.054Z,1012.15
2017-04-29T07:12:48.623Z,1012.12
2017-04-29T07:13:29.321Z,1012.12
2017-04-29T07:14:09.919Z,1012.13
2017-04-29T07:14:50.561Z,1012.15
2017-04-29T07:15:31.119Z,1012.16
2017-04-29T07:16:11.718Z,1012.18
2017-04-29T07:16:52.317Z,1012.21
2017-04-29T07:17:32.955Z,1012.25
2017-04-29T07:18:13.624Z,1012.21
2017-04-29T07:18:54.279Z,1012.26
2017-04-29T07:19:34.953Z,1012.31
2017-04-29T07:20:15.601Z,1012.28
2017-04-29T07:20:56.239Z,1012.28
2017-04-29T07:21:36.893Z,1012.24
2017-04-29T07:22:17.550Z,1012.25
2017-04-29T07:22:58.113Z,1012.26
2017-04-29T07:23:38.785Z,1012.27
2017-04-29T07:24:19.342Z,1012.29
2017-04-29T07:25:00.038Z,1012.32
2017-04-29T07:25:40.588Z,1012.34
2017-04-29T07:26:21.290Z,1012.32
2017-04-29T07:27:01.996Z,1012.38
2017-04-29T07:27:42.746Z,1012.38
2017-04-29T07:28:23.300Z,1012.39
2017-04-29T07:29:04.094Z,1012.39
2017-04-29T07:29:44.804Z,1012.38
2017-04-29T07:30:25.565Z,1012.4
2017-04-29T07:31:06.129Z,1012.35
2017-04-29T07:31:46.950Z,1012.35
2017-04-29T07:32:27.727Z,1012.33
2017-04-29T07:33:08.446Z,1012.31
2017-04-29T07:33:49.102Z,1012.29
2017-04-29T07:34:29.857Z,1012.3
2017-04-29T07:35:10.605Z,1012.28
2017-04-29T07:35:51.173Z,1012.29
2017-04-29T07:36:31.822Z,1012.24
2017-04-29T07:37:12.397Z,1012.25
2017-04-29T07:37:54.019Z,1012.24
2017-04-29T07:38:35.624Z,1012.26
2017-04-29T07:39:16.264Z,1012.3
2017-04-29T07:39:56.834Z,1012.31
2017-04-29T07:40:37.427Z,1012.34
2017-04-29T07:41:18.276Z,1012.33
2017-04-29T07:41:58.920Z,1012.3
2017-04-29T07:42:40.318Z,1012.3
2017-04-29T07:43:21.934Z,1012.29
2017-04-29T07:44:02.581Z,1012.29
2017-04-29T07:44:43.131Z,1012.32
2017-04-29T07:45:24.775Z,1012.31
2017-04-29T07:46:11.857Z,1012.33
2017-04-29T07:46:55.970Z,1012.29
2017-04-29T07:47:37.619Z,1012.29
2017-04-29T07:48:18.288Z,1012.27
2017-04-29T07:48:58.926Z,1012.26
2017-04-29T07:49:39.581Z,1012.27
2017-04-29T07:50:20.227Z,1012.23
2017-04-29T07:51:00.916Z,1012.28
2017-04-29T07:51:41.540Z,1012.3
2017-04-29T07:52:22.188Z,1012.27
2017-04-29T07:53:02.818Z,1012.21
2017-04-29T07:53:43.408Z,1012.26
2017-04-29T07:54:24.046Z,1012.27
2017-04-29T07:55:04.647Z,1012.28
2017-04-29T07:55:45.300Z,1012.28
2017-04-29T07:56:25.903Z,1012.27
2017-04-29T07:57:06.466Z,1012.36
2017-04-29T07:57:47.106Z,1012.38
2017-04-29T07:58:27.756Z,1012.32
2017-04-29T07:59:08.345Z,1012.29
2017-04-29T07:59:49.987Z,1012.34
2017-04-29T08:00:30.641Z,1012.34
2017-04-29T08:01:11.222Z,1012.39
2017-04-29T08:01:51.933Z,1012.37
2017-04-29T08:02:32.615Z,1012.38
2017-04-29T08:03:13.251Z,1012.3
2017-04-29T08:03:54.007Z,1012.3
2017-04-29T08:04:34.662Z,1012.22
2017-04-29T08:05:15.311Z,1012.2
2017-04-29T08:05:55.966Z,1012.22
2017-04-29T08:06:36.624Z,1012.22
2017-04-29T08:07:17.183Z,1012.14
2017-04-29T08:07:57.820Z,1012.17
2017-04-29T08:08:38.473Z,1012.17
2017-04-29T08:09:19.235Z,1012.21
2017-04-29T08:09:59.890Z,1012.23
2017-04-29T08:10:40.539Z,1012.26
2017-04-29T08:11:21.188Z,1012.2
2017-04-29T08:12:01.845Z,1012.18
2017-04-29T08:12:42.498Z,1012.18
2017-04-29T08:13:23.149Z,1012.18
2017-04-29T08:14:03.807Z,1012.26
2017-04-29T08:14:44.459Z,1012.24
2017-04-29T08:15:25.104Z,1012.24